KHLG/HLG METAR and TAF weather

Enter ICAO airport designator
Station Type Date Time Source
KHLG METAR 2019/05/27 09:23 UTC NOAA

KHLG 270923Z AUTO 34003KT 6SM BR FEW005 SCT070 BKN100 17/16 A3002 RMK AO2 T01720161


Station Type Date Time Source
KHLG Decoded METAR 2019/05/27 09:23 UTC NOAA

WHEELING OHIO COUNTY AIRPORT, WV, United States (KHLG) 40-10N 080-39W 372M
May 27, 2019 - 05:23 AM EDT / 2019.05.27 0923 UTC
Wind: from the NNW (340 degrees) at 3 MPH (3 KT):0
Visibility: 6 mile(s):0
Sky conditions: mostly cloudy
Weather: mist
Temperature: 63.0 F (17.2 C)
Dew Point: 61.0 F (16.1 C)
Relative Humidity: 93%
Pressure (altimeter): 30.02 in. Hg (1016 hPa)
ob: KHLG 270923Z AUTO 34003KT 6SM BR FEW005 SCT070 BKN100 17/16 A3002 RMK AO2 T01720161
cycle: 9

Station Type Date Time Source
KHLG TAF 2019/05/27 09:03 UTC NOAA

TAF
AMD KHLG 270901Z 2709/2806 33004KT P6SM SCT250
TEMPO 2709/2711 6SM BR BKN005

Example: see airport list